Time;durP1;ratioP1;P1;durP2;ratioP2;P2;SDS_P1;SDS_P2;PMS_P1;PMS_P2;Temp;Humidity;BMP_temperature;BMP_pressure;BME280_temperature;BME280_humidity;BME280_pressure;Samples;Min_cycle;Max_cycle;Signal;HPM_P1;HPM_P2
2023/04/19 00:00:34;;;;;;;16.88;11.57;;;8.50;99.90;;;;;;5112867;27;20035;-65
2023/04/19 00:03:01;;;;;;;14.80;11.10;;;8.50;99.90;;;;;;5110412;27;20039;-65
2023/04/19 00:05:27;;;;;;;15.35;10.77;;;8.50;99.90;;;;;;5111675;27;20118;-64
2023/04/19 00:07:53;;;;;;;14.40;11.38;;;8.50;99.90;;;;;;5109777;27;20035;-65
2023/04/19 00:10:19;;;;;;;13.48;11.00;;;8.50;99.90;;;;;;5110908;27;20035;-65
2023/04/19 00:12:45;;;;;;;15.35;10.50;;;8.40;99.90;;;;;;5111952;27;20051;-65
2023/04/19 00:15:11;;;;;;;17.00;11.25;;;8.40;99.90;;;;;;5112178;27;20496;-63
2023/04/19 00:17:36;;;;;;;15.02;10.63;;;8.40;99.90;;;;;;5112904;27;20035;-62
2023/04/19 00:20:03;;;;;;;15.55;10.20;;;8.40;99.90;;;;;;5112641;27;20035;-64
2023/04/19 00:22:29;;;;;;;14.27;10.77;;;8.40;99.90;;;;;;5112977;27;20073;-62
2023/04/19 00:24:54;;;;;;;17.13;10.85;;;8.40;99.90;;;;;;5112858;27;20450;-63
2023/04/19 00:27:20;;;;;;;12.60;10.20;;;8.40;99.90;;;;;;5131510;27;20104;-64
2023/04/19 00:29:46;;;;;;;13.65;10.00;;;8.40;99.90;;;;;;5147050;27;20049;-66
2023/04/19 00:32:11;;;;;;;14.98;10.13;;;8.30;99.90;;;;;;5111643;27;20046;-65
2023/04/19 00:34:37;;;;;;;13.63;10.27;;;8.30;99.90;;;;;;5112903;27;20035;-63
2023/04/19 00:37:05;;;;;;;14.15;10.00;;;8.30;99.90;;;;;;5112949;27;20489;-63
2023/04/19 00:39:31;;;;;;;15.23;10.25;;;8.30;99.90;;;;;;5112841;27;20076;-65
2023/04/19 00:41:56;;;;;;;12.85;9.20;;;8.30;99.90;;;;;;5115071;27;20030;-64
2023/04/19 00:44:23;;;;;;;13.48;8.82;;;8.30;99.90;;;;;;5112802;27;20053;-62
2023/04/19 00:46:49;;;;;;;12.93;9.65;;;8.30;99.90;;;;;;5112631;27;20035;-63
2023/04/19 00:49:19;;;;;;;11.65;9.38;;;8.20;99.90;;;;;;5112891;27;20070;-62
2023/04/19 00:51:45;;;;;;;12.77;9.05;;;8.20;99.90;;;;;;5095251;27;20111;-65
2023/04/19 00:54:12;;;;;;;13.30;9.50;;;8.20;99.90;;;;;;5112431;27;20031;-65
2023/04/19 00:56:38;;;;;;;11.95;9.05;;;8.20;99.90;;;;;;5095774;27;20042;-62
2023/04/19 00:59:04;;;;;;;12.57;9.32;;;8.20;99.90;;;;;;5095183;28;20059;-64
2023/04/19 01:01:30;;;;;;;13.43;8.95;;;8.20;99.90;;;;;;5113204;27;20096;-64
2023/04/19 01:03:56;;;;;;;12.63;8.88;;;8.20;99.90;;;;;;5130463;27;20035;-65
2023/04/19 01:06:22;;;;;;;10.48;8.85;;;8.20;99.90;;;;;;5112484;27;20051;-66
2023/04/19 01:08:49;;;;;;;13.20;8.63;;;8.20;99.90;;;;;;5095630;28;20046;-64
2023/04/19 01:11:14;;;;;;;14.10;9.00;;;8.20;99.90;;;;;;5112256;27;20131;-63
2023/04/19 01:13:40;;;;;;;13.15;8.90;;;8.20;99.90;;;;;;5112545;28;20039;-66
2023/04/19 01:16:06;;;;;;;11.10;8.15;;;8.30;99.90;;;;;;5110884;27;20043;-65
2023/04/19 01:18:36;;;;;;;11.70;8.10;;;8.30;99.90;;;;;;5112872;27;20088;-64
2023/04/19 01:21:02;;;;;;;13.20;9.55;;;8.30;99.90;;;;;;5114567;28;20039;-62
2023/04/19 01:23:28;;;;;;;11.15;8.45;;;8.30;99.90;;;;;;5109822;27;20050;-63
2023/04/19 01:25:54;;;;;;;12.15;8.27;;;8.30;99.90;;;;;;5112323;28;20043;-65
2023/04/19 01:28:19;;;;;;;12.65;8.52;;;8.30;99.90;;;;;;5112416;27;20090;-65
2023/04/19 01:30:45;;;;;;;12.27;8.23;;;8.30;99.90;;;;;;5112401;27;20039;-65
2023/04/19 01:33:10;;;;;;;10.70;8.20;;;8.30;99.90;;;;;;5112333;27;20039;-65
2023/04/19 01:35:36;;;;;;;10.48;8.10;;;8.30;99.90;;;;;;5112623;27;20445;-63
2023/04/19 01:38:02;;;;;;;9.25;7.25;;;8.40;99.90;;;;;;5112585;28;20122;-65
2023/04/19 01:40:27;;;;;;;12.18;8.25;;;8.30;99.90;;;;;;5112120;27;20058;-65
2023/04/19 01:42:53;;;;;;;10.15;7.85;;;8.40;99.90;;;;;;5112444;28;20031;-65
2023/04/19 01:45:19;;;;;;;11.18;7.68;;;8.40;99.90;;;;;;5109136;27;20051;-63
2023/04/19 01:47:44;;;;;;;10.05;7.45;;;8.30;99.90;;;;;;5111834;27;20508;-65
2023/04/19 01:50:10;;;;;;;8.88;6.97;;;8.30;99.90;;;;;;5112337;28;20055;-64
2023/04/19 01:52:36;;;;;;;8.25;6.75;;;8.30;99.90;;;;;;5112026;27;20051;-65
2023/04/19 01:55:01;;;;;;;9.27;6.82;;;8.40;99.90;;;;;;5130484;27;20031;-65
2023/04/19 01:57:27;;;;;;;12.32;7.18;;;8.30;99.90;;;;;;5110871;28;20422;-64
2023/04/19 01:59:53;;;;;;;11.88;7.60;;;8.30;99.90;;;;;;5111775;28;20084;-62
2023/04/19 02:02:19;;;;;;;9.65;7.43;;;8.30;99.90;;;;;;5111708;28;20043;-64
2023/04/19 02:04:44;;;;;;;11.57;8.13;;;8.30;99.90;;;;;;5111781;27;20027;-64
2023/04/19 02:07:10;;;;;;;9.82;7.28;;;8.30;99.90;;;;;;5109258;28;20047;-62
2023/04/19 02:09:37;;;;;;;9.13;6.88;;;8.30;99.90;;;;;;5111945;27;20051;-64
2023/04/19 02:12:04;;;;;;;8.88;6.85;;;8.30;99.90;;;;;;5111868;28;20051;-64
2023/04/19 02:14:30;;;;;;;11.38;6.85;;;8.30;99.90;;;;;;5112056;28;20247;-62
2023/04/19 02:16:56;;;;;;;8.30;6.97;;;8.30;99.90;;;;;;5111602;28;20039;-63
2023/04/19 02:19:22;;;;;;;11.57;6.95;;;8.20;99.90;;;;;;5113222;28;20032;-64
2023/04/19 02:21:48;;;;;;;10.70;6.57;;;8.30;99.90;;;;;;5112156;27;20108;-63
2023/04/19 02:24:14;;;;;;;9.75;6.55;;;8.20;99.90;;;;;;5113295;28;20048;-63
2023/04/19 02:26:39;;;;;;;9.65;7.20;;;8.20;99.90;;;;;;5109811;27;20671;-65
2023/04/19 02:29:06;;;;;;;10.20;6.80;;;8.20;99.90;;;;;;5092008;28;20108;-63
2023/04/19 02:31:31;;;;;;;11.65;7.10;;;8.20;99.90;;;;;;5144666;27;20077;-64
2023/04/19 02:33:57;;;;;;;9.70;6.55;;;8.20;99.90;;;;;;5111609;28;20043;-65
2023/04/19 02:36:23;;;;;;;11.32;6.53;;;8.10;99.90;;;;;;5110223;28;20115;-66
2023/04/19 02:38:48;;;;;;;9.55;7.28;;;8.10;99.90;;;;;;5111174;28;20591;-65
2023/04/19 02:41:14;;;;;;;8.30;6.47;;;8.10;99.90;;;;;;5111548;28;20034;-64
2023/04/19 02:43:40;;;;;;;7.85;6.47;;;8.10;99.90;;;;;;5114329;27;20516;-65
2023/04/19 02:46:06;;;;;;;8.50;6.53;;;8.10;99.90;;;;;;5111555;28;20031;-63
2023/04/19 02:48:31;;;;;;;8.90;6.45;;;8.10;99.90;;;;;;5110696;28;20039;-65
2023/04/19 02:50:57;;;;;;;10.77;7.05;;;8.00;99.90;;;;;;5110980;27;20047;-65
2023/04/19 02:53:23;;;;;;;9.40;6.88;;;8.00;99.90;;;;;;5111371;28;20039;-64
2023/04/19 02:55:49;;;;;;;10.43;7.05;;;8.00;99.90;;;;;;5111052;28;20051;-63
2023/04/19 02:58:15;;;;;;;9.80;6.68;;;7.90;99.90;;;;;;5111242;28;20670;-65
2023/04/19 03:00:41;;;;;;;9.63;7.10;;;7.90;99.90;;;;;;5110899;27;20043;-62
2023/04/19 03:03:08;;;;;;;12.55;6.82;;;7.90;99.90;;;;;;5109934;28;20089;-66
2023/04/19 03:05:34;;;;;;;11.27;7.05;;;7.80;99.90;;;;;;5110641;27;20042;-63
2023/04/19 03:07:59;;;;;;;10.45;7.15;;;7.80;99.90;;;;;;5109421;28;20565;-64
2023/04/19 03:10:25;;;;;;;9.25;6.60;;;7.70;99.90;;;;;;5109175;28;20031;-62
2023/04/19 03:12:51;;;;;;;11.02;7.20;;;7.60;99.90;;;;;;5110200;28;20048;-63
2023/04/19 03:15:17;;;;;;;11.07;7.30;;;7.60;99.90;;;;;;5110848;28;20040;-63
2023/04/19 03:17:43;;;;;;;10.27;7.40;;;7.60;99.90;;;;;;5111389;27;20035;-62
2023/04/19 03:20:10;;;;;;;10.68;7.50;;;7.50;99.90;;;;;;5110856;28;20485;-65
2023/04/19 03:22:37;;;;;;;9.70;7.22;;;7.40;99.90;;;;;;5109029;28;20043;-65
2023/04/19 03:25:03;;;;;;;12.38;7.50;;;7.40;99.90;;;;;;5110382;28;20039;-64
2023/04/19 03:27:29;;;;;;;9.38;7.35;;;7.30;99.90;;;;;;5110671;28;20039;-64
2023/04/19 03:29:55;;;;;;;10.20;7.53;;;7.30;99.90;;;;;;5111037;28;20043;-62
2023/04/19 03:32:21;;;;;;;9.85;7.10;;;7.20;99.90;;;;;;5111166;28;20040;-66
2023/04/19 03:34:47;;;;;;;10.07;7.78;;;7.20;99.90;;;;;;5111439;28;20084;-63
2023/04/19 03:37:12;;;;;;;12.43;7.97;;;7.10;99.90;;;;;;5111722;27;20075;-63
2023/04/19 03:39:38;;;;;;;10.35;7.90;;;7.10;99.90;;;;;;5110757;28;20043;-66
2023/04/19 03:42:04;;;;;;;11.57;8.20;;;7.10;99.90;;;;;;5108972;28;20490;-64
2023/04/19 03:44:33;;;;;;;11.85;7.70;;;7.00;99.90;;;;;;5110389;28;20130;-65
2023/04/19 03:46:59;;;;;;;11.48;8.02;;;7.00;99.90;;;;;;5110197;28;20035;-63
2023/04/19 03:49:25;;;;;;;12.77;8.50;;;6.90;99.90;;;;;;5110248;28;20043;-64
2023/04/19 03:51:50;;;;;;;11.68;8.13;;;6.90;99.90;;;;;;5110594;28;20054;-65
2023/04/19 03:54:16;;;;;;;12.32;8.45;;;6.80;99.90;;;;;;5106408;28;21825;-65
2023/04/19 03:56:42;;;;;;;15.93;9.60;;;6.80;99.90;;;;;;5109915;28;20040;-64
2023/04/19 03:59:08;;;;;;;11.75;8.30;;;6.70;99.90;;;;;;5109930;28;20056;-65
2023/04/19 04:01:40;;;;;;;11.40;8.55;;;6.70;99.90;;;;;;5109975;28;20056;-65
2023/04/19 04:04:09;;;;;;;12.67;8.93;;;6.70;99.90;;;;;;5109546;27;20470;-64
2023/04/19 04:06:34;;;;;;;11.82;8.32;;;6.60;99.90;;;;;;5109526;27;20039;-64
2023/04/19 04:09:01;;;;;;;11.45;7.95;;;6.60;99.90;;;;;;5109676;27;20069;-63
2023/04/19 04:11:26;;;;;;;11.07;8.38;;;6.60;99.90;;;;;;5110053;28;20469;-64
2023/04/19 04:13:53;;;;;;;11.13;7.53;;;6.50;99.90;;;;;;5110044;28;20075;-64
2023/04/19 04:16:18;;;;;;;11.10;7.60;;;6.50;99.90;;;;;;5109911;28;20470;-63
2023/04/19 04:18:44;;;;;;;12.23;7.72;;;6.50;99.90;;;;;;5110055;28;20028;-64
2023/04/19 04:21:10;;;;;;;10.18;7.57;;;6.50;99.90;;;;;;5109949;28;20096;-64
2023/04/19 04:23:36;;;;;;;10.88;7.75;;;6.40;99.90;;;;;;5110073;28;20432;-63
2023/04/19 04:26:04;;;;;;;11.38;7.88;;;6.40;99.90;;;;;;5110373;27;20464;-63
2023/04/19 04:28:30;;;;;;;9.68;7.60;;;6.40;99.90;;;;;;5109713;28;20440;-65
2023/04/19 04:30:57;;;;;;;11.73;7.75;;;6.40;99.90;;;;;;5109730;28;20093;-64
2023/04/19 04:33:27;;;;;;;11.63;6.82;;;6.30;99.90;;;;;;5109899;28;20031;-64
2023/04/19 04:35:54;;;;;;;9.70;7.22;;;6.30;99.90;;;;;;5109247;28;20055;-65
2023/04/19 04:38:20;;;;;;;10.32;7.43;;;6.30;99.90;;;;;;5109684;28;20044;-64
2023/04/19 04:40:52;;;;;;;9.80;6.85;;;6.30;99.90;;;;;;5092429;28;20067;-62
2023/04/19 04:43:20;;;;;;;11.98;7.43;;;6.30;99.90;;;;;;5111098;27;20096;-63
2023/04/19 04:45:46;;;;;;;10.60;7.47;;;6.30;99.90;;;;;;5092124;28;20042;-62
2023/04/19 04:48:12;;;;;;;10.52;7.15;;;6.20;99.90;;;;;;5144339;27;20035;-65
2023/04/19 04:50:37;;;;;;;10.10;7.05;;;6.30;99.90;;;;;;5109137;28;20044;-63
2023/04/19 04:53:03;;;;;;;10.30;6.65;;;6.30;99.90;;;;;;5109321;28;20039;-62
2023/04/19 04:55:29;;;;;;;9.10;6.65;;;6.30;99.90;;;;;;5110882;28;20035;-64
2023/04/19 04:57:55;;;;;;;8.35;6.85;;;6.30;99.90;;;;;;5108935;28;20043;-64
2023/04/19 05:00:21;;;;;;;8.52;6.50;;;6.30;99.90;;;;;;5112050;28;20055;-65
2023/04/19 05:02:47;;;;;;;9.30;6.05;;;6.30;99.90;;;;;;5110601;28;20039;-65
2023/04/19 05:05:12;;;;;;;11.70;6.65;;;6.30;99.90;;;;;;5109264;28;21478;-65
2023/04/19 05:07:38;;;;;;;10.77;6.68;;;6.30;99.90;;;;;;5109007;28;20494;-65
2023/04/19 05:10:05;;;;;;;8.55;6.45;;;6.30;99.90;;;;;;5110522;28;20035;-64
2023/04/19 05:12:30;;;;;;;8.85;6.20;;;6.30;99.90;;;;;;5106375;28;20051;-64
2023/04/19 05:14:56;;;;;;;11.88;6.93;;;6.30;99.90;;;;;;5108897;28;20059;-63
2023/04/19 05:17:21;;;;;;;9.52;6.65;;;6.40;99.90;;;;;;5109230;28;20043;-63
2023/04/19 05:19:47;;;;;;;8.20;6.05;;;6.40;99.90;;;;;;5109411;28;20059;-62
2023/04/19 05:22:13;;;;;;;9.07;6.65;;;6.40;99.90;;;;;;5107436;28;20131;-62
2023/04/19 05:24:38;;;;;;;9.88;6.25;;;6.40;99.90;;;;;;5108517;28;20034;-65
2023/04/19 05:27:04;;;;;;;10.10;6.55;;;6.40;99.90;;;;;;5109102;28;20055;-63
2023/04/19 05:29:31;;;;;;;11.15;6.32;;;6.50;99.90;;;;;;5108759;28;20440;-66
2023/04/19 05:31:57;;;;;;;10.23;6.40;;;6.50;99.90;;;;;;5105972;28;20487;-62
2023/04/19 05:34:23;;;;;;;7.93;5.80;;;6.50;99.90;;;;;;5105594;28;20410;-66
2023/04/19 05:36:49;;;;;;;6.68;5.60;;;6.50;99.90;;;;;;5109701;28;20046;-65
2023/04/19 05:39:14;;;;;;;9.25;6.13;;;6.60;99.90;;;;;;5107153;28;20107;-65
2023/04/19 05:41:40;;;;;;;8.25;5.53;;;6.60;99.90;;;;;;5108651;28;20036;-65
2023/04/19 05:44:06;;;;;;;9.50;6.03;;;6.70;99.90;;;;;;5106930;28;20071;-65
2023/04/19 05:46:31;;;;;;;10.18;5.65;;;6.70;99.90;;;;;;5111396;28;20114;-65
2023/04/19 05:48:57;;;;;;;10.45;5.65;;;6.80;99.90;;;;;;5110595;27;20071;-64
2023/04/19 05:51:23;;;;;;;8.20;5.75;;;6.80;99.90;;;;;;5109871;27;20438;-65
2023/04/19 05:53:48;;;;;;;8.60;5.38;;;6.90;99.90;;;;;;5112364;28;20044;-66
2023/04/19 05:56:14;;;;;;;7.07;5.40;;;7.00;99.90;;;;;;5095906;28;20071;-63
2023/04/19 05:58:40;;;;;;;9.25;4.97;;;7.00;99.90;;;;;;5111067;28;20051;-65
2023/04/19 06:01:06;;;;;;;8.98;4.95;;;7.10;99.90;;;;;;5108976;27;20106;-64
2023/04/19 06:03:34;;;;;;;8.93;5.13;;;7.20;99.90;;;;;;5111625;28;20062;-65
2023/04/19 06:06:00;;;;;;;7.18;5.43;;;7.20;99.90;;;;;;5110327;27;20043;-64
2023/04/19 06:08:26;;;;;;;8.73;5.40;;;7.30;99.90;;;;;;5109916;28;20045;-63
2023/04/19 06:10:53;;;;;;;7.93;4.70;;;7.40;99.90;;;;;;5112208;28;20129;-67
2023/04/19 06:13:19;;;;;;;9.82;5.00;;;7.50;99.90;;;;;;5110190;28;21025;-65
2023/04/19 06:15:46;;;;;;;7.20;4.85;;;7.60;99.90;;;;;;5111803;27;20406;-65
2023/04/19 06:18:11;;;;;;;7.82;4.50;;;7.70;99.90;;;;;;5110974;27;20044;-66
2023/04/19 06:20:38;;;;;;;5.55;4.22;;;7.80;99.90;;;;;;5112033;28;20077;-65
2023/04/19 06:23:05;;;;;;;7.72;4.20;;;7.80;99.90;;;;;;5112474;27;20035;-64
2023/04/19 06:25:31;;;;;;;7.93;4.93;;;8.00;99.90;;;;;;5110099;27;20066;-65
2023/04/19 06:27:57;;;;;;;5.90;4.45;;;8.10;99.90;;;;;;5112063;27;20035;-66
2023/04/19 06:30:22;;;;;;;6.60;4.50;;;8.20;99.90;;;;;;5113521;27;20051;-65
2023/04/19 06:32:48;;;;;;;7.47;4.57;;;8.30;99.90;;;;;;5112423;28;20095;-66
2023/04/19 06:35:14;;;;;;;11.95;4.85;;;8.30;99.90;;;;;;5111833;27;20086;-65
2023/04/19 06:37:40;;;;;;;6.28;4.15;;;8.50;99.90;;;;;;5110947;27;20048;-63
2023/04/19 06:40:07;;;;;;;6.70;3.95;;;8.60;99.90;;;;;;5115905;27;20686;-65
2023/04/19 06:42:33;;;;;;;7.05;4.43;;;8.70;99.90;;;;;;5111237;27;20106;-67
2023/04/19 06:44:59;;;;;;;7.53;4.20;;;8.80;99.90;;;;;;5119695;27;20040;-63
2023/04/19 06:47:25;;;;;;;6.03;4.10;;;8.90;99.90;;;;;;5111833;28;20047;-66
2023/04/19 06:49:51;;;;;;;9.27;3.97;;;9.00;99.90;;;;;;5111997;28;20176;-66
2023/04/19 06:52:17;;;;;;;6.32;3.83;;;9.10;99.90;;;;;;5111826;28;20048;-66
2023/04/19 06:54:49;;;;;;;4.10;3.45;;;9.10;99.90;;;;;;5111814;28;20036;-66
2023/04/19 06:57:18;;;;;;;6.95;3.78;;;9.20;99.90;;;;;;5110281;28;20513;-66
2023/04/19 06:59:44;;;;;;;5.47;3.70;;;9.20;99.90;;;;;;5111469;28;20047;-65
2023/04/19 07:02:09;;;;;;;9.48;4.00;;;9.40;99.90;;;;;;5112168;28;20046;-65
2023/04/19 07:04:36;;;;;;;4.38;3.17;;;9.50;99.90;;;;;;5111627;28;20043;-65
2023/04/19 07:07:02;;;;;;;6.68;3.28;;;9.60;99.90;;;;;;5111316;28;20093;-65
2023/04/19 07:09:28;;;;;;;6.55;3.40;;;9.70;99.90;;;;;;5111254;28;20123;-64
2023/04/19 07:11:54;;;;;;;5.57;3.33;;;9.90;99.90;;;;;;5111347;28;20139;-64
2023/04/19 07:14:20;;;;;;;6.07;3.30;;;9.90;99.90;;;;;;5111777;28;20052;-66
2023/04/19 07:16:46;;;;;;;4.32;3.35;;;10.10;99.90;;;;;;5093686;28;20048;-64
2023/04/19 07:19:12;;;;;;;5.72;3.25;;;10.10;99.90;;;;;;5145547;27;20035;-64
2023/04/19 07:21:38;;;;;;;7.43;2.90;;;10.20;99.90;;;;;;5111545;28;20028;-64
2023/04/19 07:24:07;;;;;;;7.35;3.03;;;10.30;99.90;;;;;;5108288;28;20498;-65
2023/04/19 07:26:33;;;;;;;4.65;3.10;;;10.40;99.90;;;;;;5109983;28;20035;-65
2023/04/19 07:28:59;;;;;;;3.42;2.70;;;10.40;99.80;;;;;;5108384;28;20418;-63
2023/04/19 07:31:26;;;;;;;4.07;2.78;;;10.50;99.90;;;;;;5093884;28;20035;-64
2023/04/19 07:33:52;;;;;;;4.25;2.63;;;10.70;99.90;;;;;;5110619;28;20047;-63
2023/04/19 07:36:20;;;;;;;4.85;2.47;;;10.80;99.50;;;;;;5110742;28;20203;-66
2023/04/19 07:38:45;;;;;;;4.53;2.13;;;10.80;98.90;;;;;;5110078;28;20035;-66
2023/04/19 07:41:11;;;;;;;3.55;2.05;;;10.80;98.30;;;;;;5111765;28;20102;-66
2023/04/19 07:43:37;;;;;;;4.00;2.33;;;10.80;97.50;;;;;;5109954;27;20091;-66
2023/04/19 07:46:10;;;;;;;4.03;2.28;;;11.00;97.30;;;;;;5109463;28;20035;-64
2023/04/19 07:48:36;;;;;;;5.70;2.08;;;11.00;97.00;;;;;;5110514;28;20046;-65
2023/04/19 07:51:10;;;;;;;2.42;1.90;;;11.10;96.80;;;;;;5162284;27;20050;-64
2023/04/19 07:53:36;;;;;;;3.08;1.95;;;11.20;95.60;;;;;;5130980;27;20083;-64
2023/04/19 07:56:02;;;;;;;3.45;2.10;;;11.30;96.50;;;;;;5130439;27;20047;-66
2023/04/19 07:58:28;;;;;;;3.17;2.00;;;11.40;97.00;;;;;;5130732;27;20083;-66
2023/04/19 08:00:54;;;;;;;2.63;1.90;;;11.60;96.40;;;;;;5114306;27;20027;-66
2023/04/19 08:03:19;;;;;;;4.10;1.77;;;11.60;95.70;;;;;;5092849;28;20043;-65
2023/04/19 08:05:45;;;;;;;3.65;1.80;;;11.70;94.80;;;;;;5110019;28;20063;-64
2023/04/19 08:08:11;;;;;;;3.25;1.70;;;11.70;94.40;;;;;;5109591;28;20046;-64
2023/04/19 08:10:36;;;;;;;3.72;1.77;;;11.80;94.10;;;;;;5091409;28;20188;-65
2023/04/19 08:13:02;;;;;;;4.00;1.70;;;11.80;93.60;;;;;;5109619;28;20504;-67
2023/04/19 08:15:28;;;;;;;3.03;1.90;;;11.80;93.30;;;;;;5108767;28;20047;-65
2023/04/19 08:17:53;;;;;;;2.97;1.60;;;11.90;92.70;;;;;;5109695;28;20027;-65
2023/04/19 08:20:20;;;;;;;2.63;1.80;;;12.00;92.60;;;;;;5108886;28;20043;-63
2023/04/19 08:22:46;;;;;;;5.85;2.10;;;12.00;92.80;;;;;;5111238;28;20045;-67
2023/04/19 08:25:12;;;;;;;4.38;1.98;;;12.10;91.90;;;;;;5110988;28;20528;-65
2023/04/19 08:27:37;;;;;;;4.15;2.10;;;12.20;91.90;;;;;;5109947;28;20036;-67
2023/04/19 08:30:03;;;;;;;3.03;1.92;;;12.40;92.30;;;;;;5109789;28;20502;-67
2023/04/19 08:32:29;;;;;;;3.97;1.85;;;12.60;92.10;;;;;;5109433;28;20789;-63
2023/04/19 08:34:56;;;;;;;2.42;1.98;;;12.70;91.40;;;;;;5109654;28;20027;-64
2023/04/19 08:37:21;;;;;;;4.22;2.38;;;12.80;91.40;;;;;;5109692;28;20043;-65
2023/04/19 08:39:47;;;;;;;4.55;2.20;;;12.90;90.90;;;;;;5109770;28;20046;-64
2023/04/19 08:42:13;;;;;;;6.15;2.10;;;12.90;89.80;;;;;;5109488;28;20119;-65
2023/04/19 08:44:39;;;;;;;4.43;2.30;;;13.00;89.90;;;;;;5109518;28;20086;-67
2023/04/19 08:47:05;;;;;;;3.40;2.10;;;13.10;90.30;;;;;;5109508;28;20035;-65
2023/04/19 08:49:35;;;;;;;6.53;2.15;;;13.30;90.20;;;;;;5109445;28;20047;-64
2023/04/19 08:52:02;;;;;;;3.70;2.20;;;13.30;87.90;;;;;;5109454;28;20040;-66
2023/04/19 08:54:29;;;;;;;5.00;2.28;;;13.30;87.50;;;;;;5109570;28;20089;-67
2023/04/19 08:56:59;;;;;;;6.13;2.28;;;13.40;86.20;;;;;;5109283;28;20397;-64
2023/04/19 08:59:25;;;;;;;3.28;2.28;;;13.40;85.90;;;;;;5109307;28;20452;-64
2023/04/19 09:01:50;;;;;;;3.25;2.58;;;13.50;86.60;;;;;;5109401;28;20083;-64
2023/04/19 09:04:16;;;;;;;3.95;2.47;;;13.70;85.20;;;;;;5109067;28;20044;-66
2023/04/19 09:06:42;;;;;;;5.03;2.33;;;13.80;84.30;;;;;;5109015;28;20367;-66
2023/04/19 09:09:14;;;;;;;4.47;2.35;;;13.90;83.00;;;;;;5109517;28;20039;-62
2023/04/19 09:11:40;;;;;;;3.45;2.28;;;14.00;82.60;;;;;;5090665;28;20055;-64
2023/04/19 09:14:10;;;;;;;2.67;2.05;;;14.20;83.30;;;;;;5108320;28;20096;-67
2023/04/19 09:16:38;;;;;;;2.88;2.08;;;14.30;82.30;;;;;;5091519;28;20075;-66
2023/04/19 09:19:04;;;;;;;5.22;2.28;;;14.50;81.90;;;;;;5103188;28;20459;-66
2023/04/19 09:21:31;;;;;;;4.20;2.25;;;14.60;82.40;;;;;;5109943;28;20054;-67
2023/04/19 09:23:57;;;;;;;3.55;2.35;;;14.70;80.90;;;;;;5113113;28;20032;-66
2023/04/19 09:26:23;;;;;;;4.35;2.10;;;14.80;79.60;;;;;;5112887;28;20046;-63
2023/04/19 09:29:04;;;;;;;4.65;2.45;;;14.80;78.80;;;;;;5112240;27;20035;-65
2023/04/19 09:31:38;;;;;;;4.22;2.22;;;15.00;75.40;;;;;;5113082;28;20478;-66
2023/04/19 09:34:16;;;;;;;5.60;2.15;;;15.00;76.30;;;;;;5113044;28;20073;-65
2023/04/19 09:36:41;;;;;;;3.35;2.30;;;15.20;74.80;;;;;;5112492;28;20043;-65
2023/04/19 09:39:07;;;;;;;3.55;2.20;;;15.10;75.30;;;;;;5112142;28;20448;-64
2023/04/19 09:41:33;;;;;;;3.08;1.83;;;15.20;75.20;;;;;;5112626;27;20071;-67
2023/04/19 09:44:14;;;;;;;2.50;2.13;;;15.30;74.60;;;;;;5112759;28;20054;-66
2023/04/19 09:46:41;;;;;;;7.32;1.90;;;15.40;73.80;;;;;;5112684;28;20087;-67
2023/04/19 09:49:16;;;;;;;4.15;2.00;;;15.50;73.90;;;;;;5110629;28;20082;-65
2023/04/19 09:51:46;;;;;;;6.30;1.92;;;15.50;72.10;;;;;;5112389;28;20139;-66
2023/04/19 09:54:14;;;;;;;4.25;1.90;;;15.60;73.90;;;;;;5112580;28;20108;-64
2023/04/19 09:56:40;;;;;;;4.57;1.88;;;15.70;71.60;;;;;;5112497;28;20047;-68
2023/04/19 09:59:07;;;;;;;4.75;1.85;;;15.70;70.00;;;;;;5111890;27;20035;-66
2023/04/19 10:01:38;;;;;;;3.83;1.60;;;15.90;69.80;;;;;;5112509;28;20107;-64
2023/04/19 10:04:05;;;;;;;6.43;2.10;;;16.00;69.00;;;;;;5112068;28;20569;-67
2023/04/19 10:06:31;;;;;;;4.78;2.00;;;15.90;67.70;;;;;;5095480;28;20047;-64
2023/04/19 10:09:01;;;;;;;3.10;1.65;;;15.90;66.50;;;;;;5112236;28;20094;-65
2023/04/19 10:11:37;;;;;;;4.18;1.88;;;15.90;66.70;;;;;;5114516;27;20050;-64
2023/04/19 10:14:07;;;;;;;6.35;1.98;;;16.00;66.00;;;;;;5111423;27;20054;-66
2023/04/19 10:16:35;;;;;;;2.58;1.80;;;16.00;66.10;;;;;;5108828;27;20050;-65
2023/04/19 10:19:04;;;;;;;3.75;2.20;;;16.20;66.80;;;;;;5111818;27;20058;-65
2023/04/19 10:21:31;;;;;;;3.75;1.90;;;16.50;67.60;;;;;;5090979;27;20062;-66
2023/04/19 10:23:58;;;;;;;4.18;1.70;;;16.60;66.70;;;;;;5113833;27;20130;-66
2023/04/19 10:26:24;;;;;;;3.60;2.30;;;16.70;66.10;;;;;;5108489;27;20047;-67
2023/04/19 10:28:49;;;;;;;2.63;1.70;;;16.80;66.70;;;;;;5114217;27;20047;-65
2023/04/19 10:31:20;;;;;;;2.92;1.90;;;17.10;67.30;;;;;;5114652;27;20481;-64
2023/04/19 10:33:47;;;;;;;3.88;2.08;;;17.30;67.30;;;;;;5115070;27;20385;-64
2023/04/19 10:36:16;;;;;;;3.05;1.77;;;17.40;66.00;;;;;;5114205;27;20062;-68
2023/04/19 10:38:54;;;;;;;4.75;1.60;;;17.50;65.90;;;;;;5114682;27;20043;-65
2023/04/19 10:41:20;;;;;;;2.00;1.48;;;17.60;64.60;;;;;;5114469;27;20043;-66
2023/04/19 10:43:56;;;;;;;2.70;1.73;;;17.80;66.30;;;;;;5146211;27;20122;-65
2023/04/19 10:46:23;;;;;;;5.93;1.70;;;17.80;63.00;;;;;;5113976;27;20493;-64
2023/04/19 10:48:56;;;;;;;3.90;1.45;;;18.00;64.90;;;;;;5096631;27;20043;-65
2023/04/19 10:51:37;;;;;;;2.13;1.33;;;18.00;65.50;;;;;;5114190;27;20091;-66
2023/04/19 10:54:04;;;;;;;7.03;1.83;;;18.30;64.60;;;;;;5113923;27;20047;-65
2023/04/19 10:56:33;;;;;;;3.35;1.60;;;18.40;64.50;;;;;;5114314;27;20051;-66
2023/04/19 10:59:04;;;;;;;2.63;1.75;;;18.50;63.40;;;;;;5114099;27;20042;-65
2023/04/19 11:01:45;;;;;;;4.32;1.70;;;18.70;63.20;;;;;;5114432;27;20043;-67
2023/04/19 11:04:12;;;;;;;2.40;2.20;;;18.80;63.00;;;;;;5112935;27;20054;-66
2023/04/19 11:06:59;;;;;;;4.60;1.70;;;19.00;62.10;;;;;;5112683;27;20042;-67
2023/04/19 11:09:35;;;;;;;3.58;1.60;;;19.00;60.00;;;;;;5112495;27;20039;-65
2023/04/19 11:12:09;;;;;;;2.22;1.60;;;18.90;58.40;;;;;;5111038;27;20051;-65
2023/04/19 11:14:38;;;;;;;2.08;1.50;;;19.00;60.70;;;;;;5114518;27;20043;-65
2023/04/19 11:17:26;;;;;;;3.10;1.65;;;19.30;60.70;;;;;;5115037;27;20042;-68
2023/04/19 11:20:07;;;;;;;4.55;1.50;;;19.30;59.70;;;;;;5114456;27;20035;-66
2023/04/19 11:22:46;;;;;;;2.10;1.50;;;19.10;60.00;;;;;;5113738;27;20141;-64
2023/04/19 11:25:16;;;;;;;3.42;1.70;;;19.20;59.70;;;;;;5131942;27;20051;-66
2023/04/19 11:27:44;;;;;;;4.32;2.05;;;19.30;60.00;;;;;;5134496;27;20101;-65
2023/04/19 11:30:19;;;;;;;3.08;1.50;;;19.10;57.80;;;;;;5126286;27;20544;-64
2023/04/19 11:32:47;;;;;;;3.65;1.60;;;19.10;57.50;;;;;;5113279;27;20061;-66
2023/04/19 11:35:13;;;;;;;3.97;1.65;;;19.30;58.50;;;;;;5113391;27;20110;-65
2023/04/19 11:37:39;;;;;;;5.50;1.67;;;19.40;58.80;;;;;;5090579;27;20387;-67
2023/04/19 11:40:08;;;;;;;4.63;1.50;;;19.50;57.50;;;;;;5131342;27;20039;-63
2023/04/19 11:42:34;;;;;;;3.58;1.40;;;19.60;58.40;;;;;;5115699;27;20043;-64
2023/04/19 11:45:00;;;;;;;4.57;1.40;;;19.50;58.30;;;;;;5113552;27;20047;-65
2023/04/19 11:47:26;;;;;;;3.13;1.75;;;19.60;57.50;;;;;;5112742;27;20039;-65
2023/04/19 11:49:55;;;;;;;2.03;1.10;;;19.60;56.80;;;;;;5110918;27;20477;-67
2023/04/19 11:52:25;;;;;;;1.63;1.30;;;19.50;56.50;;;;;;5152337;27;20585;-65
2023/04/19 11:54:54;;;;;;;1.85;1.55;;;19.50;56.40;;;;;;5115725;27;20450;-66
2023/04/19 11:57:30;;;;;;;2.63;1.60;;;19.60;56.00;;;;;;5128467;27;20345;-66
2023/04/19 12:00:14;;;;;;;2.15;1.50;;;19.70;55.70;;;;;;5095037;27;20043;-65
2023/04/19 12:02:42;;;;;;;2.25;1.40;;;19.70;56.10;;;;;;5112214;27;20050;-64
2023/04/19 12:05:09;;;;;;;2.45;1.27;;;19.60;55.30;;;;;;5136564;27;20114;-63
2023/04/19 12:07:35;;;;;;;1.90;1.25;;;19.60;55.60;;;;;;5111806;27;20070;-64
2023/04/19 12:10:11;;;;;;;1.50;1.25;;;19.60;56.00;;;;;;5094718;27;20402;-65
2023/04/19 12:12:38;;;;;;;2.83;1.40;;;19.50;54.70;;;;;;5112483;27;20753;-64
2023/04/19 12:15:05;;;;;;;1.52;1.42;;;19.50;55.40;;;;;;5119944;27;20069;-64
2023/04/19 12:17:31;;;;;;;2.33;2.03;;;19.40;54.60;;;;;;5128515;27;20218;-64
2023/04/19 12:19:56;;;;;;;2.30;1.58;;;19.30;55.30;;;;;;5113277;27;20478;-65
2023/04/19 12:22:25;;;;;;;2.47;1.60;;;19.20;54.70;;;;;;5111852;27;20054;-66
2023/04/19 12:24:54;;;;;;;4.32;1.60;;;19.10;55.00;;;;;;5111623;27;20043;-66
2023/04/19 12:27:20;;;;;;;2.25;1.50;;;19.00;54.60;;;;;;5111491;27;20055;-66
2023/04/19 12:29:46;;;;;;;1.90;1.55;;;19.20;56.50;;;;;;5111885;27;20141;-65
2023/04/19 12:32:12;;;;;;;3.83;1.70;;;19.40;57.00;;;;;;5132888;27;20035;-65
2023/04/19 12:34:37;;;;;;;2.03;1.80;;;19.40;55.50;;;;;;5126986;27;20072;-65
2023/04/19 12:37:03;;;;;;;3.63;1.90;;;19.40;55.10;;;;;;5111085;27;20043;-66
2023/04/19 12:39:29;;;;;;;2.38;1.73;;;19.20;55.20;;;;;;5129600;27;20035;-67
2023/04/19 12:41:56;;;;;;;6.07;1.80;;;19.10;55.00;;;;;;5111329;27;20061;-64
2023/04/19 12:44:22;;;;;;;1.75;1.60;;;18.90;55.60;;;;;;5108828;27;20114;-64
2023/04/19 12:46:48;;;;;;;3.08;1.80;;;18.90;55.50;;;;;;5094545;27;20122;-64